Terminal Aerodrome Forecast
Issued by NWS Blacksburg, VA

Home | Current Version | Previous Version | Text Only | Print | Product List | Glossary On
Versions: 1 2 3 4 5 6 7 8 9 10 11 12 13 14 15 16 17 18 19 20 21 22 23
000
FTUS41 KRNK 170523
TAFDAN
TAF
KDAN 170523Z 1706/1806 00000KT P6SM OVC120
     FM171100 00000KT 4SM BR VCSH BKN045
     FM171300 VRB03KT P6SM VCSH BKN045
     FM171700 20005KT P6SM BKN035
     FM172100 19006KT P6SM VCTS BKN045CB
     FM180400 17004KT P6SM SCT050 BKN200=

USA.gov is the U.S. government's official web portal to all federal, state and local government web resources and services.